ZGGGRCSS

Guest
Details From ZGGG - Baiyun Intl
To RCSS - Sungshan
Flight Number -
Tags Generated
Created
Modified
Stats Distance 463 nm / 858 km
Max Altitude 0 ft / 0 m
Waypoints 3
Social Downloads 1
Likes 0
Share VATSIM

Download

Looking for another format? Having issues loading an existing format? Contact us
Advertisement - Login to hide

Notes

Generated

Route

ZGGG CKS06 RCSS

ID Type Via Altitude Latitude Longitude Leg Dist Tot Dist Heading (true) Name
O ZGGG APT - 0 ft / 0 m 23.37682˚ 113.28350˚ - 0 nm - -
CKS06 FIX - 0 ft / 0 m 24.99916˚ 121.14431˚ 441 nm 441 nm 76° / 79° -
O RCSS APT - 0 ft / 0 m 25.07005˚ 121.53962˚ 21 nm 463 nm 79° / 79° -

Altitude Profile

Advertisement - Login to hide

Weather


0- 5 10 15 20 25 30 35+ Temperature / ° C

Clouds and Precipitation
Forecast for 2017-12-17 12:00 UTC. Updated an hour ago

Ground ~20,000 ft ~40,000 ft Winds

ZGGG

Details ICAO ZGGG (CAN)
Name BAIYUN INTL
Region China
Timezone Asia/Shanghai (UTC+8.0)
Stats Elevation 50 ft / 15 m (AMSL)
Location 23.392439° 113.298788°
Runways 2
Magnetic Variation 2.904° W

METAR

ZGGG 171000Z 04005MPS 8000 NSC 11/M01 Q1027 NOSIG

Decode

TAF

Not found

Departure Runways

ID Width Length Bearing (true) Bearing (mag) Surface Threshold Offset Overrun Length
02L 148 ft / 45 m 11,891 ft / 3,624 m 13.86° 16.76° Concrete 0 ft / 0 m 375 ft / 114 m
02R 197 ft / 60 m 12,554 ft / 3,827 m 13.90° 16.80° Concrete 0 ft / 0 m 380 ft / 116 m
20L 197 ft / 60 m 12,554 ft / 3,827 m 193.90° 196.80° Concrete 670 ft / 204 m 375 ft / 114 m
20R 148 ft / 45 m 11,891 ft / 3,624 m 193.86° 196.76° Concrete 0 ft / 0 m 385 ft / 117 m

RCSS

Details ICAO RCSS (TSA)
Name Sungshan
Region Republic of China (Taiwan)
Timezone Asia/Taipei (UTC+8.0)
Stats Elevation 18 ft / 5 m (AMSL)
Location 25.069586° 121.552570°
Runways 1
Magnetic Variation 4.481° W

METAR

RCSS 171000Z 10009KT 5000 -RA FEW007 BKN020 OVC035 13/12 Q1026 NOSIG RMK A3030 RA AMT 0.60MM

Decode

TAF

TAF RCSS 170500Z 1706/1806 10008KT 9999 FEW015 BKN032 TEMPO 1706/1712 11013KT 5000 RA FEW012 BKN016 BKN035 TEMPO 1718/1724 FEW012 BKN016 BKN035 TEMPO 1800/1806 VRB05KT 5000 RA FEW012 BKN018 BKN035

Decode

Destination Runways

ID Width Length Bearing (true) Bearing (mag) Surface Threshold Offset Overrun Length
10 197 ft / 60 m 8,566 ft / 2,611 m 92.26° 96.74° Asphalt 0 ft / 0 m 197 ft / 60 m
28 197 ft / 60 m 8,566 ft / 2,611 m 272.27° 276.75° Asphalt 0 ft / 0 m 525 ft / 160 m

Approach Navaids

Runway Type Ident Frequency Range Bearing (true) Bearing (mag) Slope Elevation
10 Localiser ITSG 108.90 MHz 18 nm / 33 km 92.23° 96.71° - 13 ft / 4 m (AMSL)
10 Glidescope ITSG 108.90 MHz 10 nm / 19 km 92.27° 96.75° 3.00° 12 ft / 4 m (AMSL)
10 DME ITSG 108.90 MHz 18 nm / 33 km - - - 18 ft / 5 m (AMSL)
28 Localiser ITLU 108.10 MHz 18 nm / 33 km 264.28° 268.76° - 18 ft / 5 m (AMSL)
28 DME ITLU 108.10 MHz 18 nm / 33 km - - - 18 ft / 5 m (AMSL)